Time;durP1;ratioP1;P1;durP2;ratioP2;P2;SDS_P1;SDS_P2;PMS_P1;PMS_P2;Temp;Humidity;BMP_temperature;BMP_pressure;BME280_temperature;BME280_humidity;BME280_pressure;Samples;Min_cycle;Max_cycle;Signal;HPM_P1;HPM_P2
2022/07/29 00:01:52;;;;;;;9.65;2.65;;;15.60;99.90;;;;;;5054075;28;20060;-72
2022/07/29 00:04:18;;;;;;;2.45;2.17;;;15.60;99.90;;;;;;5070361;28;20080;-72
2022/07/29 00:06:44;;;;;;;5.30;2.58;;;15.60;99.90;;;;;;5070594;28;20037;-71
2022/07/29 00:09:09;;;;;;;4.68;2.33;;;15.60;99.90;;;;;;5070534;28;20036;-71
2022/07/29 00:11:35;;;;;;;3.20;2.00;;;15.50;99.90;;;;;;5070512;28;20089;-72
2022/07/29 00:14:01;;;;;;;8.93;2.55;;;15.50;99.90;;;;;;5070293;28;20499;-71
2022/07/29 00:16:26;;;;;;;6.53;2.40;;;15.50;99.90;;;;;;5071279;28;20109;-71
2022/07/29 00:18:52;;;;;;;3.28;1.90;;;15.60;99.90;;;;;;5070622;28;20024;-71
2022/07/29 00:21:17;;;;;;;3.20;1.85;;;15.50;99.90;;;;;;5070151;28;20076;-72
2022/07/29 00:23:43;;;;;;;3.42;2.15;;;15.50;99.90;;;;;;5069961;28;20449;-71
2022/07/29 00:26:08;;;;;;;5.88;2.50;;;15.40;99.90;;;;;;5071450;28;20144;-71
2022/07/29 00:28:34;;;;;;;3.85;2.00;;;15.50;99.90;;;;;;5070051;28;20048;-71
2022/07/29 00:30:59;;;;;;;4.05;2.28;;;15.40;99.90;;;;;;5072252;28;20036;-71
2022/07/29 00:33:25;;;;;;;4.80;2.40;;;15.40;99.90;;;;;;5073905;28;20120;-71
2022/07/29 00:35:51;;;;;;;6.95;2.22;;;15.40;99.90;;;;;;5072644;28;20485;-71
2022/07/29 00:38:18;;;;;;;3.05;2.42;;;15.40;99.90;;;;;;5053204;28;20045;-71
2022/07/29 00:40:44;;;;;;;4.65;2.22;;;15.40;99.90;;;;;;5069761;28;20051;-71
2022/07/29 00:43:12;;;;;;;4.32;2.70;;;15.40;99.90;;;;;;5068834;28;20501;-71
2022/07/29 00:45:37;;;;;;;3.70;2.30;;;15.40;99.90;;;;;;5053108;28;20059;-71
2022/07/29 00:48:04;;;;;;;3.17;1.98;;;15.30;99.90;;;;;;5069546;28;20032;-71
2022/07/29 00:50:30;;;;;;;3.60;1.83;;;15.30;99.90;;;;;;5069929;28;20094;-71
2022/07/29 00:52:56;;;;;;;3.45;2.50;;;15.40;99.90;;;;;;5052861;28;20036;-72
2022/07/29 00:55:22;;;;;;;5.25;2.17;;;15.30;99.90;;;;;;5053319;28;20771;-71
2022/07/29 00:57:48;;;;;;;5.93;2.50;;;15.30;99.90;;;;;;5069798;28;20040;-71
2022/07/29 01:00:21;;;;;;;3.65;2.38;;;15.30;99.90;;;;;;5069907;28;20076;-71
2022/07/29 01:02:50;;;;;;;3.30;2.30;;;15.30;99.90;;;;;;5084301;28;20051;-71
2022/07/29 01:05:21;;;;;;;3.33;2.50;;;15.30;99.90;;;;;;5078658;28;20143;-71
2022/07/29 01:07:50;;;;;;;5.13;2.35;;;15.30;99.90;;;;;;5070168;28;20111;-71
2022/07/29 01:10:18;;;;;;;2.38;2.10;;;15.30;99.90;;;;;;5052820;28;20047;-71
2022/07/29 01:12:46;;;;;;;4.82;2.42;;;15.40;99.90;;;;;;5070936;28;20048;-72
2022/07/29 01:15:12;;;;;;;5.18;2.58;;;15.30;99.90;;;;;;5053018;28;20446;-71
2022/07/29 01:17:43;;;;;;;5.38;2.72;;;15.30;99.90;;;;;;5069171;28;20123;-71
2022/07/29 01:20:22;;;;;;;7.85;2.55;;;15.30;99.90;;;;;;5052675;28;20365;-71
2022/07/29 01:23:02;;;;;;;7.15;2.50;;;15.30;99.90;;;;;;5069133;28;20215;-72
2022/07/29 01:25:48;;;;;;;3.35;2.72;;;15.30;99.90;;;;;;5070543;28;20105;-71
2022/07/29 01:28:39;;;;;;;4.60;2.90;;;15.20;99.90;;;;;;5070538;28;20117;-71
2022/07/29 01:31:06;;;;;;;5.80;2.85;;;15.20;99.90;;;;;;5069446;28;20044;-71
2022/07/29 01:33:50;;;;;;;3.90;2.40;;;15.20;99.90;;;;;;5052635;28;20047;-72
2022/07/29 01:36:26;;;;;;;4.63;2.42;;;15.20;99.90;;;;;;5070103;28;20041;-72
2022/07/29 01:39:10;;;;;;;4.53;3.00;;;15.20;99.90;;;;;;5069505;28;20028;-71
2022/07/29 01:41:47;;;;;;;3.88;2.75;;;15.20;99.90;;;;;;5069195;28;20047;-71
2022/07/29 01:44:36;;;;;;;6.28;2.72;;;15.20;99.90;;;;;;5069179;28;20052;-71
2022/07/29 01:47:11;;;;;;;2.67;2.47;;;15.20;99.90;;;;;;5070479;28;20072;-71
2022/07/29 01:49:42;;;;;;;4.10;2.33;;;15.20;99.90;;;;;;5070725;28;20429;-71
2022/07/29 01:52:14;;;;;;;3.72;2.67;;;15.10;99.90;;;;;;5069235;28;20045;-71
2022/07/29 01:54:45;;;;;;;3.47;2.83;;;15.20;99.90;;;;;;5073221;28;20045;-71
2022/07/29 01:57:14;;;;;;;5.40;2.80;;;15.10;99.90;;;;;;5072423;28;20050;-71
2022/07/29 01:59:43;;;;;;;3.78;2.50;;;15.10;99.90;;;;;;5071348;28;20485;-71
2022/07/29 02:02:10;;;;;;;9.55;2.88;;;15.10;99.90;;;;;;5069344;28;20147;-71
2022/07/29 02:04:37;;;;;;;4.55;3.00;;;15.00;99.90;;;;;;5052214;28;20041;-71
2022/07/29 02:07:06;;;;;;;2.90;2.67;;;15.10;99.90;;;;;;5069064;28;20052;-72
2022/07/29 02:09:35;;;;;;;3.58;2.40;;;15.10;99.90;;;;;;5070221;28;20115;-71
2022/07/29 02:12:03;;;;;;;4.55;3.03;;;15.10;99.90;;;;;;5078376;28;20063;-72
2022/07/29 02:14:41;;;;;;;4.65;2.80;;;15.10;99.90;;;;;;5082837;28;20044;-72
2022/07/29 02:17:08;;;;;;;7.78;2.85;;;15.10;99.90;;;;;;5070843;28;20054;-73
2022/07/29 02:19:37;;;;;;;5.10;2.97;;;15.10;99.90;;;;;;5069237;28;20076;-72
2022/07/29 02:22:05;;;;;;;6.10;3.00;;;15.10;99.90;;;;;;5069987;28;20471;-72
2022/07/29 02:24:32;;;;;;;4.80;2.60;;;15.10;99.90;;;;;;5070048;28;20041;-71
2022/07/29 02:27:00;;;;;;;3.38;2.80;;;15.00;99.90;;;;;;5069295;28;20094;-72
2022/07/29 02:29:28;;;;;;;4.40;2.60;;;15.10;99.90;;;;;;5070058;28;20040;-72
2022/07/29 02:31:57;;;;;;;3.20;2.85;;;15.00;99.90;;;;;;5068953;28;20448;-71
2022/07/29 02:34:24;;;;;;;8.07;2.50;;;15.00;99.90;;;;;;5052061;28;20109;-71
2022/07/29 02:36:51;;;;;;;4.88;2.50;;;15.00;99.90;;;;;;5069035;28;20076;-72
2022/07/29 02:39:19;;;;;;;5.00;2.80;;;15.00;99.90;;;;;;5068879;28;20041;-71
2022/07/29 02:41:55;;;;;;;3.72;2.70;;;15.00;99.90;;;;;;5068798;28;20055;-71
2022/07/29 02:44:24;;;;;;;8.32;2.70;;;15.00;99.90;;;;;;5068202;28;20497;-72
2022/07/29 02:47:16;;;;;;;3.70;2.90;;;15.00;99.90;;;;;;5068529;28;20043;-72
2022/07/29 02:49:59;;;;;;;3.70;2.70;;;15.00;99.90;;;;;;5051846;28;20116;-72
2022/07/29 02:52:58;;;;;;;3.95;2.67;;;15.00;99.90;;;;;;5069701;28;20045;-71
2022/07/29 02:55:33;;;;;;;7.00;2.83;;;15.00;99.90;;;;;;5050979;28;20049;-72
2022/07/29 02:58:22;;;;;;;5.60;2.88;;;15.00;99.90;;;;;;5068486;28;20452;-72
2022/07/29 03:00:51;;;;;;;6.38;2.63;;;15.00;99.90;;;;;;5069898;28;20049;-72
2022/07/29 03:03:18;;;;;;;5.25;2.70;;;15.00;99.90;;;;;;5051885;28;20431;-71
2022/07/29 03:05:44;;;;;;;6.50;3.10;;;15.00;99.90;;;;;;5070206;28;20137;-72
2022/07/29 03:08:12;;;;;;;4.35;2.80;;;15.00;99.90;;;;;;5073427;28;20129;-72
2022/07/29 03:10:40;;;;;;;3.03;2.58;;;15.00;99.90;;;;;;5073288;28;20040;-72
2022/07/29 03:13:07;;;;;;;5.93;2.83;;;14.90;99.90;;;;;;5072002;28;20072;-72
2022/07/29 03:15:33;;;;;;;5.35;2.85;;;14.90;99.90;;;;;;5079753;28;20067;-71
2022/07/29 03:18:00;;;;;;;4.38;2.75;;;14.90;99.90;;;;;;5082734;28;20106;-71
2022/07/29 03:20:26;;;;;;;4.78;2.80;;;14.90;99.90;;;;;;5075279;28;20044;-71
2022/07/29 03:22:52;;;;;;;5.78;2.75;;;14.90;99.90;;;;;;5082086;28;20044;-72
2022/07/29 03:25:20;;;;;;;5.45;2.78;;;14.90;99.90;;;;;;5086937;28;20389;-72
2022/07/29 03:27:46;;;;;;;5.15;2.80;;;14.90;99.90;;;;;;5072837;28;20056;-71
2022/07/29 03:30:13;;;;;;;3.08;2.78;;;14.90;99.90;;;;;;5071992;28;20071;-71
2022/07/29 03:32:39;;;;;;;6.80;2.70;;;14.90;99.90;;;;;;5072892;28;20489;-72
2022/07/29 03:35:06;;;;;;;4.40;2.55;;;14.90;99.90;;;;;;5071534;28;20103;-72
2022/07/29 03:37:33;;;;;;;3.70;2.50;;;14.90;99.90;;;;;;5071753;28;20082;-71
2022/07/29 03:40:00;;;;;;;7.80;2.97;;;14.90;99.90;;;;;;5071436;28;20048;-71
2022/07/29 03:42:30;;;;;;;2.97;2.25;;;14.90;99.90;;;;;;5071537;28;20139;-72
2022/07/29 03:44:57;;;;;;;4.43;2.47;;;14.80;99.90;;;;;;5072655;28;20086;-72
2022/07/29 03:47:26;;;;;;;5.05;2.97;;;14.80;99.90;;;;;;5054728;28;20051;-72
2022/07/29 03:49:56;;;;;;;5.95;2.60;;;14.80;99.90;;;;;;5071423;28;20036;-72
2022/07/29 03:52:22;;;;;;;5.50;2.95;;;14.90;99.90;;;;;;5071265;28;20400;-72
2022/07/29 03:54:48;;;;;;;4.82;2.90;;;14.80;99.90;;;;;;5070881;28;20040;-71
2022/07/29 03:57:15;;;;;;;6.25;2.72;;;14.80;99.90;;;;;;5068589;28;20447;-72
2022/07/29 03:59:42;;;;;;;6.30;2.53;;;14.80;99.90;;;;;;5069400;28;20039;-72
2022/07/29 04:02:10;;;;;;;5.05;2.88;;;14.80;99.90;;;;;;5055015;28;20415;-70
2022/07/29 04:04:36;;;;;;;6.82;3.95;;;14.80;99.90;;;;;;5070117;28;20068;-71
2022/07/29 04:07:02;;;;;;;5.70;2.60;;;14.70;99.90;;;;;;5069918;28;20051;-72
2022/07/29 04:09:27;;;;;;;5.30;2.88;;;14.80;99.90;;;;;;5070353;28;20040;-72
2022/07/29 04:11:53;;;;;;;4.88;2.67;;;14.70;99.90;;;;;;5070234;28;20047;-71
2022/07/29 04:14:20;;;;;;;5.82;2.40;;;14.70;99.90;;;;;;5070429;28;20036;-71
2022/07/29 04:16:45;;;;;;;2.72;2.30;;;14.70;99.90;;;;;;5054135;28;20040;-71
2022/07/29 04:19:11;;;;;;;3.35;2.70;;;14.80;99.90;;;;;;5052853;28;20082;-72
2022/07/29 04:21:41;;;;;;;5.43;2.55;;;14.80;99.90;;;;;;5070332;28;20032;-72
2022/07/29 04:24:08;;;;;;;4.47;2.92;;;14.80;99.90;;;;;;5053562;28;20506;-71
2022/07/29 04:26:34;;;;;;;4.28;2.88;;;14.70;99.90;;;;;;5070567;28;20037;-72
2022/07/29 04:29:00;;;;;;;6.63;3.10;;;14.70;99.90;;;;;;5070446;28;20040;-72
2022/07/29 04:31:26;;;;;;;6.45;3.03;;;14.70;99.90;;;;;;5070532;28;20112;-71
2022/07/29 04:33:52;;;;;;;9.07;2.88;;;14.70;99.90;;;;;;5076545;28;20480;-71
2022/07/29 04:36:17;;;;;;;4.78;2.58;;;14.70;99.90;;;;;;5076752;28;20385;-72
2022/07/29 04:38:43;;;;;;;7.55;2.63;;;14.70;99.90;;;;;;5072853;28;20129;-71
2022/07/29 04:41:08;;;;;;;4.32;2.85;;;14.80;99.90;;;;;;5072515;28;20050;-71
2022/07/29 04:43:35;;;;;;;3.90;2.58;;;14.70;99.90;;;;;;5070522;28;20143;-71
2022/07/29 04:46:02;;;;;;;4.03;2.58;;;14.80;99.90;;;;;;5053336;28;20032;-71
2022/07/29 04:48:28;;;;;;;4.72;3.10;;;14.80;99.90;;;;;;5069853;28;20051;-71
2022/07/29 04:50:53;;;;;;;5.88;2.90;;;14.80;99.90;;;;;;5053283;28;20033;-71
2022/07/29 04:53:19;;;;;;;3.47;2.55;;;14.80;99.90;;;;;;5069618;28;20052;-71
2022/07/29 04:55:45;;;;;;;7.47;2.78;;;14.80;99.90;;;;;;5069895;28;20102;-72
2022/07/29 04:58:11;;;;;;;4.20;2.58;;;14.80;99.90;;;;;;5070698;28;20396;-71
2022/07/29 05:00:36;;;;;;;6.03;2.80;;;14.80;99.90;;;;;;5069691;28;20048;-72
2022/07/29 05:03:03;;;;;;;4.38;2.58;;;14.80;99.90;;;;;;5069869;28;20066;-72
2022/07/29 05:05:29;;;;;;;6.20;2.67;;;14.80;99.90;;;;;;5070944;28;20056;-71
2022/07/29 05:07:55;;;;;;;4.93;2.72;;;14.80;99.90;;;;;;5069758;28;20484;-71
2022/07/29 05:10:20;;;;;;;3.78;2.70;;;14.90;99.90;;;;;;5069809;28;20045;-71
2022/07/29 05:12:46;;;;;;;9.32;2.47;;;14.90;99.90;;;;;;5052790;28;20115;-70
2022/07/29 05:15:11;;;;;;;6.28;2.75;;;14.90;99.90;;;;;;5069571;28;20051;-71
2022/07/29 05:17:37;;;;;;;7.50;3.03;;;14.90;99.90;;;;;;5053072;28;20041;-71
2022/07/29 05:20:04;;;;;;;5.13;2.45;;;15.00;99.90;;;;;;5069110;28;20056;-71
2022/07/29 05:22:29;;;;;;;3.95;2.50;;;15.10;99.90;;;;;;5069031;28;20044;-71
2022/07/29 05:24:55;;;;;;;3.45;2.58;;;15.20;99.90;;;;;;5069250;28;20527;-71
2022/07/29 05:27:20;;;;;;;3.28;2.20;;;15.20;99.90;;;;;;5069570;28;20158;-72
2022/07/29 05:29:46;;;;;;;3.63;2.72;;;15.30;99.90;;;;;;5069540;28;20071;-71
2022/07/29 05:32:14;;;;;;;3.47;2.22;;;15.40;99.90;;;;;;5070857;28;20502;-72
2022/07/29 05:34:41;;;;;;;7.30;2.70;;;15.50;99.90;;;;;;5071123;28;20086;-72
2022/07/29 05:37:06;;;;;;;8.73;2.88;;;15.40;99.90;;;;;;5070511;28;20589;-72
2022/07/29 05:39:32;;;;;;;7.65;3.10;;;15.50;99.90;;;;;;5070734;28;20033;-71
2022/07/29 05:41:57;;;;;;;4.68;2.65;;;15.50;99.90;;;;;;5069503;28;20047;-71
2022/07/29 05:44:23;;;;;;;4.65;2.53;;;15.40;99.90;;;;;;5075681;28;20050;-71
2022/07/29 05:46:48;;;;;;;5.30;2.58;;;15.40;99.90;;;;;;5076788;28;20064;-71
2022/07/29 05:49:14;;;;;;;4.05;2.47;;;15.50;99.90;;;;;;5069539;28;20047;-71
2022/07/29 05:51:40;;;;;;;7.68;3.05;;;15.50;99.90;;;;;;5069209;28;20036;-71
2022/07/29 05:54:05;;;;;;;5.18;2.80;;;15.60;99.90;;;;;;5068942;28;20036;-71
2022/07/29 05:56:31;;;;;;;5.00;3.08;;;15.70;99.90;;;;;;5069075;28;20524;-71
2022/07/29 05:58:57;;;;;;;4.53;2.95;;;15.70;99.90;;;;;;5069818;28;20048;-71
2022/07/29 06:01:22;;;;;;;6.15;2.42;;;15.70;99.90;;;;;;5057254;28;20033;-70
2022/07/29 06:03:48;;;;;;;6.65;2.72;;;15.70;99.90;;;;;;5072882;28;20508;-70
2022/07/29 06:06:13;;;;;;;5.50;2.72;;;15.80;99.90;;;;;;5068918;28;20143;-71
2022/07/29 06:08:40;;;;;;;6.60;2.78;;;15.90;99.90;;;;;;5070375;28;20086;-71
2022/07/29 06:11:08;;;;;;;3.60;2.70;;;16.10;99.90;;;;;;5069283;28;20477;-71
2022/07/29 06:13:33;;;;;;;3.47;2.60;;;16.10;99.90;;;;;;5068526;28;20115;-71
2022/07/29 06:15:59;;;;;;;5.60;2.80;;;16.20;99.90;;;;;;5068977;28;20516;-71
2022/07/29 06:18:24;;;;;;;3.13;2.38;;;16.10;99.90;;;;;;5068488;28;20055;-71
2022/07/29 06:20:50;;;;;;;4.57;3.03;;;16.30;99.90;;;;;;5068625;28;20562;-71
2022/07/29 06:23:18;;;;;;;2.90;2.58;;;16.40;99.90;;;;;;5069777;28;20040;-72
2022/07/29 06:25:43;;;;;;;4.80;2.60;;;16.40;99.90;;;;;;5068670;28;20049;-71
2022/07/29 06:28:09;;;;;;;9.80;2.72;;;16.40;99.90;;;;;;5051960;28;20075;-71
2022/07/29 06:30:35;;;;;;;5.55;2.30;;;16.50;99.90;;;;;;5068467;28;20067;-71
2022/07/29 06:33:01;;;;;;;6.22;2.78;;;16.50;99.90;;;;;;5068317;28;20524;-71
2022/07/29 06:35:27;;;;;;;7.53;2.08;;;16.50;99.90;;;;;;5068626;28;20496;-72
2022/07/29 06:37:53;;;;;;;6.13;3.22;;;16.50;99.90;;;;;;5070079;28;20193;-72
2022/07/29 06:43:03;;;;;;;2.92;2.00;;;16.50;99.90;;;;;;5073514;28;20505;-72
2022/07/29 06:45:28;;;;;;;9.63;3.00;;;16.50;99.90;;;;;;5055706;28;20090;-72
2022/07/29 06:47:54;;;;;;;5.45;2.63;;;16.40;99.90;;;;;;5073996;28;20512;-72
2022/07/29 06:50:19;;;;;;;4.65;2.50;;;16.40;99.90;;;;;;5073952;28;20116;-72
2022/07/29 06:52:45;;;;;;;6.05;3.00;;;16.40;99.90;;;;;;5076531;28;20066;-72
2022/07/29 06:55:11;;;;;;;5.18;2.50;;;16.40;99.90;;;;;;5084790;28;20052;-71
2022/07/29 06:57:36;;;;;;;5.88;2.70;;;16.40;99.90;;;;;;5079066;28;20048;-72
2022/07/29 07:00:04;;;;;;;4.15;2.78;;;16.40;99.90;;;;;;5073761;28;20047;-71
2022/07/29 07:02:30;;;;;;;7.78;2.60;;;16.40;99.90;;;;;;5053154;28;20507;-72
2022/07/29 07:04:55;;;;;;;5.90;2.90;;;16.40;99.90;;;;;;5062882;28;20131;-72
2022/07/29 07:07:21;;;;;;;5.93;2.38;;;16.40;99.90;;;;;;5070335;28;20074;-72
2022/07/29 07:09:47;;;;;;;3.65;2.63;;;16.40;99.90;;;;;;5068883;28;20032;-72
2022/07/29 07:12:12;;;;;;;6.40;2.72;;;16.40;99.90;;;;;;5061751;28;20040;-73
2022/07/29 07:14:39;;;;;;;4.55;2.85;;;16.50;99.90;;;;;;5062157;28;20037;-72
2022/07/29 07:17:06;;;;;;;7.28;2.85;;;16.50;99.90;;;;;;5067344;28;20044;-72
2022/07/29 07:19:32;;;;;;;5.05;2.55;;;16.50;99.90;;;;;;5073398;28;20047;-72
2022/07/29 07:21:58;;;;;;;7.32;2.75;;;16.60;99.90;;;;;;5075285;28;20033;-72
2022/07/29 07:24:23;;;;;;;10.10;3.17;;;16.60;99.90;;;;;;5074435;28;20052;-72
2022/07/29 07:26:49;;;;;;;6.50;2.63;;;16.70;99.90;;;;;;5071832;28;20059;-72
2022/07/29 07:29:14;;;;;;;6.32;2.70;;;16.70;99.90;;;;;;5073116;28;20044;-71
2022/07/29 07:31:40;;;;;;;9.88;3.33;;;16.70;99.90;;;;;;5071212;28;20033;-72
2022/07/29 07:34:06;;;;;;;4.60;2.58;;;16.70;99.90;;;;;;5072623;28;20423;-72
2022/07/29 07:36:31;;;;;;;12.65;3.25;;;16.70;99.90;;;;;;5071735;28;20040;-72
2022/07/29 07:38:57;;;;;;;7.47;2.65;;;16.80;99.90;;;;;;5054687;28;20040;-72
2022/07/29 07:41:22;;;;;;;8.13;2.85;;;16.90;99.90;;;;;;5071895;28;20086;-70
2022/07/29 07:43:48;;;;;;;4.72;2.35;;;16.90;99.90;;;;;;5072321;28;20096;-70
2022/07/29 07:46:14;;;;;;;6.78;2.70;;;17.00;99.90;;;;;;5072495;28;20037;-71
2022/07/29 07:48:40;;;;;;;8.40;2.50;;;17.00;99.90;;;;;;5054202;28;20036;-72
2022/07/29 07:51:07;;;;;;;8.38;3.08;;;17.10;99.90;;;;;;5072686;28;20123;-72
2022/07/29 07:53:32;;;;;;;6.75;3.10;;;17.00;99.90;;;;;;5070833;28;20037;-72
2022/07/29 07:55:59;;;;;;;7.32;2.80;;;17.10;99.90;;;;;;5054470;28;20346;-70
2022/07/29 07:58:24;;;;;;;4.88;2.60;;;17.10;99.90;;;;;;5073132;28;20040;-70
2022/07/29 08:00:50;;;;;;;4.78;2.60;;;17.10;99.90;;;;;;5073508;28;20518;-70
2022/07/29 08:03:15;;;;;;;3.20;2.22;;;17.20;99.90;;;;;;5073909;28;20131;-70
2022/07/29 08:05:41;;;;;;;6.88;2.80;;;17.20;99.90;;;;;;5077077;28;20051;-70
2022/07/29 08:08:07;;;;;;;7.00;2.47;;;17.20;99.90;;;;;;5055158;28;20044;-70
2022/07/29 08:13:18;;;;;;;6.43;2.88;;;17.30;99.90;;;;;;5072495;28;20044;-70
2022/07/29 08:15:45;;;;;;;4.03;2.63;;;17.30;99.90;;;;;;5071171;28;20094;-70
2022/07/29 08:18:11;;;;;;;9.27;3.00;;;17.40;99.90;;;;;;5054297;28;20072;-70
2022/07/29 08:20:38;;;;;;;4.68;2.47;;;17.40;99.90;;;;;;5071052;28;20281;-70
2022/07/29 08:23:06;;;;;;;5.13;2.83;;;17.40;99.90;;;;;;5070925;28;20052;-70
2022/07/29 08:25:32;;;;;;;7.43;3.13;;;17.40;99.90;;;;;;5070996;28;20044;-70
2022/07/29 08:27:59;;;;;;;7.57;2.72;;;17.50;99.90;;;;;;5072726;28;20098;-70
2022/07/29 08:30:24;;;;;;;6.75;2.92;;;17.50;99.90;;;;;;5071191;28;20747;-70
2022/07/29 08:32:52;;;;;;;6.30;2.50;;;17.60;99.90;;;;;;5070784;28;20124;-70
2022/07/29 08:35:21;;;;;;;7.38;3.00;;;17.70;99.90;;;;;;5070872;28;20075;-70
2022/07/29 08:37:47;;;;;;;4.72;2.75;;;17.60;99.90;;;;;;5070819;28;20074;-70
2022/07/29 08:40:14;;;;;;;8.10;2.70;;;17.60;99.90;;;;;;5070927;28;20052;-70
2022/07/29 08:42:40;;;;;;;7.30;2.85;;;17.60;99.90;;;;;;5072560;28;20040;-70
2022/07/29 08:45:06;;;;;;;5.25;2.65;;;17.80;99.90;;;;;;5070962;28;20051;-70
2022/07/29 08:47:33;;;;;;;4.25;2.35;;;17.90;99.90;;;;;;5054049;28;20404;-70
2022/07/29 08:49:59;;;;;;;4.50;3.00;;;17.90;99.90;;;;;;5070819;28;20404;-70
2022/07/29 08:52:26;;;;;;;5.22;2.60;;;17.90;99.90;;;;;;5070488;28;20377;-70
2022/07/29 08:54:52;;;;;;;5.15;3.28;;;17.90;99.90;;;;;;5070317;28;20115;-70
2022/07/29 08:57:19;;;;;;;7.32;2.50;;;17.90;99.90;;;;;;5070339;28;20064;-70
2022/07/29 08:59:48;;;;;;;7.60;2.60;;;17.90;99.90;;;;;;5071500;28;20055;-70
2022/07/29 09:02:19;;;;;;;6.95;2.80;;;18.00;99.90;;;;;;5071876;28;20056;-71
2022/07/29 09:04:45;;;;;;;6.18;2.60;;;18.00;99.90;;;;;;5071188;28;20048;-70
2022/07/29 09:07:18;;;;;;;6.05;2.70;;;17.90;99.90;;;;;;5053227;28;20115;-69
2022/07/29 09:09:43;;;;;;;7.68;2.42;;;17.90;99.90;;;;;;5071710;28;20036;-70
2022/07/29 09:12:11;;;;;;;4.05;2.53;;;17.90;99.90;;;;;;5070171;28;20036;-70
2022/07/29 09:14:38;;;;;;;10.82;2.50;;;17.90;99.90;;;;;;5074932;28;20044;-70
2022/07/29 09:17:04;;;;;;;7.10;2.35;;;18.00;99.90;;;;;;5073009;28;20113;-69
2022/07/29 09:19:38;;;;;;;7.45;2.90;;;18.00;99.90;;;;;;5071474;28;20067;-70
2022/07/29 09:22:06;;;;;;;4.28;2.30;;;18.00;99.90;;;;;;5070046;28;20072;-69
2022/07/29 09:24:47;;;;;;;5.82;2.35;;;18.00;99.90;;;;;;5070888;28;20440;-69
2022/07/29 09:27:28;;;;;;;4.00;2.40;;;18.10;99.90;;;;;;5070080;28;20089;-69
2022/07/29 09:30:05;;;;;;;8.00;3.22;;;18.10;99.90;;;;;;5070342;28;20036;-69
2022/07/29 09:32:31;;;;;;;11.40;2.50;;;18.10;99.90;;;;;;5071241;28;20047;-69
2022/07/29 09:35:20;;;;;;;7.35;2.80;;;18.20;99.90;;;;;;5069663;28;20051;-70
2022/07/29 09:37:46;;;;;;;3.40;2.25;;;18.20;99.90;;;;;;5069905;28;20474;-69
2022/07/29 09:40:15;;;;;;;9.02;2.72;;;18.30;99.90;;;;;;5069644;28;20555;-69
2022/07/29 09:42:41;;;;;;;11.07;2.53;;;18.40;99.90;;;;;;5069295;28;20119;-69
2022/07/29 09:45:08;;;;;;;5.63;2.30;;;18.50;99.90;;;;;;5069662;28;20052;-69
2022/07/29 09:47:48;;;;;;;5.10;2.70;;;18.50;99.90;;;;;;5069728;28;20048;-69
2022/07/29 09:50:15;;;;;;;7.32;2.88;;;18.60;99.90;;;;;;5069807;28;20948;-69
2022/07/29 09:52:50;;;;;;;5.18;2.88;;;18.60;99.90;;;;;;5069330;28;20051;-69
2022/07/29 09:55:17;;;;;;;4.97;2.70;;;18.70;99.90;;;;;;5071186;28;20075;-69
2022/07/29 09:57:43;;;;;;;7.40;2.60;;;18.80;99.90;;;;;;5071037;28;20040;-69
2022/07/29 10:00:12;;;;;;;5.68;2.60;;;18.80;99.90;;;;;;5070585;28;20477;-69
2022/07/29 10:02:40;;;;;;;9.32;2.50;;;18.90;99.90;;;;;;5069730;28;20127;-70
2022/07/29 10:05:23;;;;;;;6.55;2.70;;;18.90;99.90;;;;;;5070439;28;20094;-69
2022/07/29 10:07:51;;;;;;;4.45;2.78;;;18.90;99.90;;;;;;5069869;28;20044;-69
2022/07/29 10:10:27;;;;;;;7.90;2.65;;;18.90;99.90;;;;;;5052773;28;20046;-69
2022/07/29 10:13:00;;;;;;;8.90;2.75;;;19.00;99.90;;;;;;5069784;28;20047;-69
2022/07/29 10:15:30;;;;;;;9.13;2.92;;;19.00;99.90;;;;;;5070709;28;20047;-70
2022/07/29 10:17:56;;;;;;;6.85;3.03;;;19.00;99.90;;;;;;5073682;28;20535;-70
2022/07/29 10:20:23;;;;;;;5.05;2.53;;;19.10;99.90;;;;;;5056994;28;20388;-70
2022/07/29 10:22:49;;;;;;;7.15;2.80;;;19.20;99.90;;;;;;5076529;28;20041;-70
2022/07/29 10:25:16;;;;;;;5.47;2.65;;;19.20;99.90;;;;;;5075491;28;20472;-69
2022/07/29 10:27:43;;;;;;;5.97;2.50;;;19.20;99.90;;;;;;5073977;28;20135;-69
2022/07/29 10:30:09;;;;;;;10.20;2.35;;;19.30;99.90;;;;;;5073102;28;20150;-70
2022/07/29 10:32:40;;;;;;;5.63;2.65;;;19.20;99.90;;;;;;5073338;28;20040;-70
2022/07/29 10:35:17;;;;;;;4.60;2.35;;;19.20;99.90;;;;;;5073331;28;20084;-70
2022/07/29 10:38:22;;;;;;;4.38;2.50;;;19.20;99.90;;;;;;5073133;28;20047;-70
2022/07/29 10:41:26;;;;;;;5.50;2.65;;;19.10;99.90;;;;;;5073632;28;20084;-69
2022/07/29 10:43:54;;;;;;;8.48;3.15;;;19.10;99.90;;;;;;5072976;28;20040;-70
2022/07/29 10:46:20;;;;;;;6.30;2.70;;;19.10;99.90;;;;;;5073196;28;20048;-70
2022/07/29 10:49:07;;;;;;;6.55;2.60;;;19.20;99.90;;;;;;5073190;28;20076;-70
2022/07/29 10:52:09;;;;;;;10.98;2.65;;;19.20;99.90;;;;;;5073013;28;20044;-70
2022/07/29 10:54:34;;;;;;;5.10;2.83;;;19.20;99.90;;;;;;5051643;28;20053;-70
2022/07/29 10:57:25;;;;;;;8.13;2.72;;;19.20;99.90;;;;;;5064664;28;20053;-69
2022/07/29 11:00:13;;;;;;;6.38;2.38;;;19.30;99.90;;;;;;5074276;28;20511;-69
2022/07/29 11:02:44;;;;;;;7.85;2.83;;;19.20;99.90;;;;;;5072705;28;20054;-69
2022/07/29 11:05:11;;;;;;;6.80;2.70;;;19.20;99.90;;;;;;5074560;28;20549;-69
2022/07/29 11:07:38;;;;;;;10.23;2.65;;;19.20;99.90;;;;;;5072798;28;20120;-69
2022/07/29 11:10:13;;;;;;;6.75;2.95;;;19.20;99.90;;;;;;5072581;28;20046;-69
2022/07/29 11:12:38;;;;;;;9.13;3.10;;;19.20;99.90;;;;;;5073946;28;20131;-69
2022/07/29 11:15:05;;;;;;;6.03;2.50;;;19.30;99.90;;;;;;5072563;28;20127;-69
2022/07/29 11:18:02;;;;;;;9.15;2.95;;;19.30;99.90;;;;;;5072744;28;20080;-69
2022/07/29 11:20:52;;;;;;;8.32;2.95;;;19.30;99.90;;;;;;5072594;28;20131;-69
2022/07/29 11:23:35;;;;;;;7.32;2.97;;;19.40;99.90;;;;;;5073311;28;20053;-69
2022/07/29 11:26:25;;;;;;;5.95;3.08;;;19.50;99.90;;;;;;5072977;28;20049;-69
2022/07/29 11:28:54;;;;;;;6.10;2.80;;;19.50;99.90;;;;;;5073682;28;20048;-69
2022/07/29 11:31:35;;;;;;;8.38;3.28;;;19.60;99.90;;;;;;5074911;28;20039;-70
2022/07/29 11:34:19;;;;;;;8.57;3.15;;;19.60;99.90;;;;;;5080939;28;20072;-70
2022/07/29 11:39:38;;;;;;;4.43;2.67;;;19.70;99.90;;;;;;5073481;28;20055;-70
2022/07/29 11:42:16;;;;;;;8.05;3.20;;;19.70;99.90;;;;;;5055384;28;20162;-69
2022/07/29 11:45:08;;;;;;;8.27;3.08;;;19.80;99.90;;;;;;5072127;28;20044;-69
2022/07/29 11:47:40;;;;;;;6.38;3.55;;;19.80;99.90;;;;;;5073244;28;20097;-69
2022/07/29 11:50:09;;;;;;;10.40;3.22;;;19.80;99.90;;;;;;5071815;28;20036;-69
2022/07/29 11:52:44;;;;;;;8.20;2.90;;;19.90;99.90;;;;;;5073041;28;20102;-70
2022/07/29 11:55:12;;;;;;;6.95;3.17;;;19.90;99.90;;;;;;5071846;28;20047;-69
2022/07/29 11:57:49;;;;;;;10.38;3.22;;;20.00;99.90;;;;;;5073087;28;20048;-70
2022/07/29 12:00:35;;;;;;;6.10;2.80;;;20.00;99.90;;;;;;5071237;28;20037;-69
2022/07/29 12:03:04;;;;;;;10.10;3.10;;;20.00;99.90;;;;;;5071517;28;20497;-70
2022/07/29 12:05:34;;;;;;;7.68;2.88;;;20.00;99.90;;;;;;5054884;28;20386;-70
2022/07/29 12:08:08;;;;;;;9.48;3.00;;;20.10;99.90;;;;;;5072392;28;20028;-70
2022/07/29 12:10:33;;;;;;;8.75;3.38;;;20.10;99.90;;;;;;5054468;28;20127;-68
2022/07/29 12:12:59;;;;;;;5.90;3.22;;;20.10;99.90;;;;;;5072700;28;20116;-69
2022/07/29 12:15:25;;;;;;;9.15;3.10;;;20.20;99.90;;;;;;5071269;28;20051;-68
2022/07/29 12:17:52;;;;;;;11.43;3.03;;;20.20;99.90;;;;;;5070798;28;20044;-68
2022/07/29 12:20:28;;;;;;;8.93;3.00;;;20.30;99.90;;;;;;5070803;28;20040;-70
2022/07/29 12:22:55;;;;;;;7.22;2.75;;;20.30;99.90;;;;;;5071356;28;20476;-69
2022/07/29 12:25:22;;;;;;;9.90;3.33;;;20.30;99.90;;;;;;5070625;28;20037;-68
2022/07/29 12:27:57;;;;;;;8.93;3.40;;;20.30;99.90;;;;;;5070584;28;20115;-68
2022/07/29 12:30:23;;;;;;;5.95;2.92;;;20.40;99.90;;;;;;5070357;28;20033;-68
2022/07/29 12:33:15;;;;;;;19.02;3.70;;;20.40;99.90;;;;;;5070198;28;20496;-68
2022/07/29 12:35:42;;;;;;;;;;;20.40;99.90;;;;;;5072846;28;20040;-71
2022/07/29 12:38:11;;;;;;;9.10;2.85;;;20.50;99.90;;;;;;5070742;28;20561;-72
2022/07/29 12:43:53;;;;;;;7.22;3.05;;;20.70;99.90;;;;;;5074837;28;20052;-70
2022/07/29 12:46:18;;;;;;;5.20;3.15;;;20.80;99.90;;;;;;5074861;28;20446;-70
2022/07/29 12:48:44;;;;;;;6.00;3.25;;;20.90;99.90;;;;;;5075910;28;20115;-70
2022/07/29 12:51:12;;;;;;;5.68;2.95;;;20.90;99.90;;;;;;5065969;28;20064;-71
2022/07/29 12:53:38;;;;;;;8.88;3.22;;;20.80;99.90;;;;;;5060483;28;20032;-71
2022/07/29 12:56:05;;;;;;;6.15;3.58;;;20.90;99.90;;;;;;5051987;28;20037;-70
2022/07/29 12:58:39;;;;;;;3.70;3.13;;;20.90;99.90;;;;;;5052477;28;20045;-70
2022/07/29 13:01:20;;;;;;;5.45;3.20;;;21.00;99.90;;;;;;5051106;28;20044;-70
2022/07/29 13:03:56;;;;;;;5.82;3.00;;;21.10;99.90;;;;;;5050766;28;20131;-70
2022/07/29 13:06:41;;;;;;;7.15;3.00;;;21.10;99.90;;;;;;5050517;28;20516;-70
2022/07/29 13:09:17;;;;;;;8.57;3.25;;;21.20;99.90;;;;;;5050173;28;20106;-69